sensor_id;sensor_type;location;lat;lon;timestamp;P1;durP1;ratioP1;P2;durP2;ratioP2
45522;SDS011;31254;51.680;5.394;2023-04-25T00:00:08;12.93;;;2.65;;
45522;SDS011;31254;51.680;5.394;2023-04-25T00:02:36;10.52;;;2.97;;
45522;SDS011;31254;51.680;5.394;2023-04-25T00:05:03;12.68;;;2.92;;
45522;SDS011;31254;51.680;5.394;2023-04-25T00:07:31;10.77;;;3.22;;
45522;SDS011;31254;51.680;5.394;2023-04-25T00:10:00;12.23;;;3.15;;
45522;SDS011;31254;51.680;5.394;2023-04-25T00:12:29;13.38;;;3.10;;
45522;SDS011;31254;51.680;5.394;2023-04-25T00:14:56;7.13;;;2.75;;
45522;SDS011;31254;51.680;5.394;2023-04-25T00:17:23;9.13;;;3.10;;
45522;SDS011;31254;51.680;5.394;2023-04-25T00:19:53;9.57;;;3.47;;
45522;SDS011;31254;51.680;5.394;2023-04-25T00:22:22;10.70;;;3.42;;
45522;SDS011;31254;51.680;5.394;2023-04-25T00:24:52;10.70;;;3.03;;
45522;SDS011;31254;51.680;5.394;2023-04-25T00:27:19;12.55;;;3.15;;
45522;SDS011;31254;51.680;5.394;2023-04-25T00:29:46;16.90;;;3.13;;
45522;SDS011;31254;51.680;5.394;2023-04-25T00:32:13;9.18;;;2.80;;
45522;SDS011;31254;51.680;5.394;2023-04-25T00:34:40;14.20;;;3.35;;
45522;SDS011;31254;51.680;5.394;2023-04-25T00:37:07;7.70;;;2.80;;
45522;SDS011;31254;51.680;5.394;2023-04-25T00:39:33;11.77;;;3.40;;
45522;SDS011;31254;51.680;5.394;2023-04-25T00:42:00;10.90;;;3.00;;
45522;SDS011;31254;51.680;5.394;2023-04-25T00:44:29;11.35;;;3.42;;
45522;SDS011;31254;51.680;5.394;2023-04-25T00:46:56;13.68;;;2.88;;
45522;SDS011;31254;51.680;5.394;2023-04-25T00:49:26;13.82;;;3.58;;
45522;SDS011;31254;51.680;5.394;2023-04-25T00:51:53;12.55;;;3.50;;
45522;SDS011;31254;51.680;5.394;2023-04-25T00:54:20;6.07;;;2.70;;
45522;SDS011;31254;51.680;5.394;2023-04-25T00:56:47;11.57;;;3.22;;
45522;SDS011;31254;51.680;5.394;2023-04-25T00:59:14;10.90;;;2.83;;
45522;SDS011;31254;51.680;5.394;2023-04-25T01:01:41;11.23;;;3.10;;
45522;SDS011;31254;51.680;5.394;2023-04-25T01:04:10;14.32;;;3.75;;
45522;SDS011;31254;51.680;5.394;2023-04-25T01:06:37;12.35;;;2.40;;
45522;SDS011;31254;51.680;5.394;2023-04-25T01:09:04;13.35;;;3.65;;
45522;SDS011;31254;51.680;5.394;2023-04-25T01:11:31;8.98;;;2.70;;
45522;SDS011;31254;51.680;5.394;2023-04-25T01:13:58;12.55;;;3.30;;
45522;SDS011;31254;51.680;5.394;2023-04-25T01:16:28;10.13;;;3.10;;
45522;SDS011;31254;51.680;5.394;2023-04-25T01:18:56;12.38;;;3.28;;
45522;SDS011;31254;51.680;5.394;2023-04-25T01:21:22;14.95;;;3.72;;
45522;SDS011;31254;51.680;5.394;2023-04-25T01:23:52;10.85;;;3.42;;
45522;SDS011;31254;51.680;5.394;2023-04-25T01:26:20;11.35;;;3.47;;
45522;SDS011;31254;51.680;5.394;2023-04-25T01:28:47;14.10;;;3.70;;
45522;SDS011;31254;51.680;5.394;2023-04-25T01:31:15;10.15;;;3.30;;
45522;SDS011;31254;51.680;5.394;2023-04-25T01:33:43;20.45;;;3.95;;
45522;SDS011;31254;51.680;5.394;2023-04-25T01:36:10;14.70;;;3.58;;
45522;SDS011;31254;51.680;5.394;2023-04-25T01:38:37;18.30;;;4.00;;
45522;SDS011;31254;51.680;5.394;2023-04-25T01:41:07;17.95;;;4.35;;
45522;SDS011;31254;51.680;5.394;2023-04-25T01:43:34;14.27;;;3.65;;
45522;SDS011;31254;51.680;5.394;2023-04-25T01:46:01;18.60;;;4.25;;
45522;SDS011;31254;51.680;5.394;2023-04-25T01:48:28;15.35;;;3.85;;
45522;SDS011;31254;51.680;5.394;2023-04-25T01:50:55;16.85;;;4.22;;
45522;SDS011;31254;51.680;5.394;2023-04-25T01:53:22;11.10;;;3.33;;
45522;SDS011;31254;51.680;5.394;2023-04-25T01:55:49;11.52;;;4.00;;
45522;SDS011;31254;51.680;5.394;2023-04-25T01:58:16;12.15;;;4.43;;
45522;SDS011;31254;51.680;5.394;2023-04-25T02:00:43;18.02;;;4.43;;
45522;SDS011;31254;51.680;5.394;2023-04-25T02:03:10;18.50;;;4.28;;
45522;SDS011;31254;51.680;5.394;2023-04-25T02:05:38;11.73;;;3.47;;
45522;SDS011;31254;51.680;5.394;2023-04-25T02:08:08;14.90;;;4.55;;
45522;SDS011;31254;51.680;5.394;2023-04-25T02:10:38;18.02;;;5.00;;
45522;SDS011;31254;51.680;5.394;2023-04-25T02:13:07;20.73;;;4.30;;
45522;SDS011;31254;51.680;5.394;2023-04-25T02:15:36;13.35;;;3.63;;
45522;SDS011;31254;51.680;5.394;2023-04-25T02:18:03;14.68;;;4.53;;
45522;SDS011;31254;51.680;5.394;2023-04-25T02:20:33;14.70;;;4.28;;
45522;SDS011;31254;51.680;5.394;2023-04-25T02:23:01;17.45;;;4.40;;
45522;SDS011;31254;51.680;5.394;2023-04-25T02:25:28;22.63;;;4.70;;
45522;SDS011;31254;51.680;5.394;2023-04-25T02:27:54;19.23;;;4.57;;
45522;SDS011;31254;51.680;5.394;2023-04-25T02:30:23;16.15;;;4.55;;
45522;SDS011;31254;51.680;5.394;2023-04-25T02:32:52;16.58;;;4.32;;
45522;SDS011;31254;51.680;5.394;2023-04-25T02:35:19;15.20;;;5.00;;
45522;SDS011;31254;51.680;5.394;2023-04-25T02:37:48;16.63;;;4.57;;
45522;SDS011;31254;51.680;5.394;2023-04-25T02:40:19;16.07;;;4.10;;
45522;SDS011;31254;51.680;5.394;2023-04-25T02:42:46;21.03;;;4.83;;
45522;SDS011;31254;51.680;5.394;2023-04-25T02:45:13;13.68;;;4.60;;
45522;SDS011;31254;51.680;5.394;2023-04-25T02:47:45;12.80;;;3.77;;
45522;SDS011;31254;51.680;5.394;2023-04-25T02:50:14;17.20;;;4.20;;
45522;SDS011;31254;51.680;5.394;2023-04-25T02:52:43;14.03;;;5.20;;
45522;SDS011;31254;51.680;5.394;2023-04-25T02:55:10;14.47;;;3.60;;
45522;SDS011;31254;51.680;5.394;2023-04-25T02:57:37;12.13;;;3.80;;
45522;SDS011;31254;51.680;5.394;2023-04-25T03:00:04;14.97;;;3.80;;
45522;SDS011;31254;51.680;5.394;2023-04-25T03:02:31;13.47;;;4.20;;
45522;SDS011;31254;51.680;5.394;2023-04-25T03:04:58;14.77;;;4.13;;
45522;SDS011;31254;51.680;5.394;2023-04-25T03:07:25;19.43;;;4.83;;
45522;SDS011;31254;51.680;5.394;2023-04-25T03:09:54;11.88;;;3.60;;
45522;SDS011;31254;51.680;5.394;2023-04-25T03:12:22;21.17;;;4.47;;
45522;SDS011;31254;51.680;5.394;2023-04-25T03:14:51;14.47;;;3.90;;
45522;SDS011;31254;51.680;5.394;2023-04-25T03:17:22;20.20;;;4.20;;
45522;SDS011;31254;51.680;5.394;2023-04-25T03:19:51;10.77;;;3.80;;
45522;SDS011;31254;51.680;5.394;2023-04-25T03:22:18;13.20;;;3.70;;
45522;SDS011;31254;51.680;5.394;2023-04-25T03:24:45;14.68;;;4.15;;
45522;SDS011;31254;51.680;5.394;2023-04-25T03:27:12;16.92;;;4.05;;
45522;SDS011;31254;51.680;5.394;2023-04-25T03:29:38;11.02;;;4.88;;
45522;SDS011;31254;51.680;5.394;2023-04-25T03:32:06;11.03;;;4.10;;
45522;SDS011;31254;51.680;5.394;2023-04-25T03:34:35;16.57;;;4.43;;
45522;SDS011;31254;51.680;5.394;2023-04-25T03:37:02;19.20;;;4.07;;
45522;SDS011;31254;51.680;5.394;2023-04-25T03:39:29;14.55;;;4.00;;
45522;SDS011;31254;51.680;5.394;2023-04-25T03:41:56;12.82;;;4.10;;
45522;SDS011;31254;51.680;5.394;2023-04-25T03:44:22;15.67;;;4.13;;
45522;SDS011;31254;51.680;5.394;2023-04-25T03:46:50;12.13;;;4.10;;
45522;SDS011;31254;51.680;5.394;2023-04-25T03:49:17;16.47;;;4.20;;
45522;SDS011;31254;51.680;5.394;2023-04-25T03:51:46;12.38;;;4.32;;
45522;SDS011;31254;51.680;5.394;2023-04-25T03:54:13;19.30;;;4.47;;
45522;SDS011;31254;51.680;5.394;2023-04-25T03:56:39;18.93;;;4.27;;
45522;SDS011;31254;51.680;5.394;2023-04-25T03:59:06;12.43;;;4.30;;
45522;SDS011;31254;51.680;5.394;2023-04-25T04:01:35;18.73;;;4.85;;
45522;SDS011;31254;51.680;5.394;2023-04-25T04:04:04;14.17;;;3.97;;
45522;SDS011;31254;51.680;5.394;2023-04-25T04:06:31;11.23;;;3.97;;
45522;SDS011;31254;51.680;5.394;2023-04-25T04:08:58;15.23;;;4.40;;
45522;SDS011;31254;51.680;5.394;2023-04-25T04:11:25;15.85;;;4.45;;
45522;SDS011;31254;51.680;5.394;2023-04-25T04:13:52;13.17;;;4.33;;
45522;SDS011;31254;51.680;5.394;2023-04-25T04:16:18;15.07;;;4.00;;
45522;SDS011;31254;51.680;5.394;2023-04-25T04:18:48;12.03;;;3.80;;
45522;SDS011;31254;51.680;5.394;2023-04-25T04:21:14;16.23;;;4.67;;
45522;SDS011;31254;51.680;5.394;2023-04-25T04:23:44;13.87;;;4.03;;
45522;SDS011;31254;51.680;5.394;2023-04-25T04:26:11;13.87;;;4.20;;
45522;SDS011;31254;51.680;5.394;2023-04-25T04:28:39;19.97;;;3.90;;
45522;SDS011;31254;51.680;5.394;2023-04-25T04:31:06;21.35;;;4.65;;
45522;SDS011;31254;51.680;5.394;2023-04-25T04:33:34;14.77;;;4.05;;
45522;SDS011;31254;51.680;5.394;2023-04-25T04:36:01;15.75;;;4.30;;
45522;SDS011;31254;51.680;5.394;2023-04-25T04:38:29;16.17;;;4.40;;
45522;SDS011;31254;51.680;5.394;2023-04-25T04:40:58;18.57;;;4.50;;
45522;SDS011;31254;51.680;5.394;2023-04-25T04:43:25;15.20;;;4.50;;
45522;SDS011;31254;51.680;5.394;2023-04-25T04:45:52;16.67;;;3.73;;
45522;SDS011;31254;51.680;5.394;2023-04-25T04:48:22;14.30;;;4.32;;
45522;SDS011;31254;51.680;5.394;2023-04-25T04:50:49;18.15;;;4.40;;
45522;SDS011;31254;51.680;5.394;2023-04-25T04:53:15;18.50;;;3.65;;
45522;SDS011;31254;51.680;5.394;2023-04-25T04:55:42;10.30;;;3.70;;
45522;SDS011;31254;51.680;5.394;2023-04-25T04:58:11;24.60;;;4.00;;
45522;SDS011;31254;51.680;5.394;2023-04-25T05:00:44;14.70;;;3.65;;
45522;SDS011;31254;51.680;5.394;2023-04-25T05:03:11;16.38;;;3.97;;
45522;SDS011;31254;51.680;5.394;2023-04-25T05:05:40;14.73;;;3.80;;
45522;SDS011;31254;51.680;5.394;2023-04-25T05:08:08;14.77;;;3.80;;
45522;SDS011;31254;51.680;5.394;2023-04-25T05:10:34;10.63;;;3.50;;
45522;SDS011;31254;51.680;5.394;2023-04-25T05:13:04;13.20;;;3.80;;
45522;SDS011;31254;51.680;5.394;2023-04-25T05:15:30;13.18;;;3.65;;
45522;SDS011;31254;51.680;5.394;2023-04-25T05:18:00;11.68;;;4.00;;
45522;SDS011;31254;51.680;5.394;2023-04-25T05:20:27;13.63;;;3.92;;
45522;SDS011;31254;51.680;5.394;2023-04-25T05:22:56;11.77;;;4.65;;
45522;SDS011;31254;51.680;5.394;2023-04-25T05:25:23;10.73;;;3.33;;
45522;SDS011;31254;51.680;5.394;2023-04-25T05:27:50;12.70;;;3.05;;
45522;SDS011;31254;51.680;5.394;2023-04-25T05:30:18;13.25;;;2.90;;
45522;SDS011;31254;51.680;5.394;2023-04-25T05:32:47;14.25;;;4.38;;
45522;SDS011;31254;51.680;5.394;2023-04-25T05:35:14;13.20;;;3.22;;
45522;SDS011;31254;51.680;5.394;2023-04-25T05:37:41;16.40;;;3.53;;
45522;SDS011;31254;51.680;5.394;2023-04-25T05:40:13;10.43;;;3.22;;
45522;SDS011;31254;51.680;5.394;2023-04-25T05:42:39;10.63;;;2.92;;
45522;SDS011;31254;51.680;5.394;2023-04-25T05:45:06;11.63;;;3.22;;
45522;SDS011;31254;51.680;5.394;2023-04-25T05:47:35;13.77;;;2.80;;
45522;SDS011;31254;51.680;5.394;2023-04-25T05:50:03;14.60;;;3.60;;
45522;SDS011;31254;51.680;5.394;2023-04-25T05:52:30;14.60;;;3.17;;
45522;SDS011;31254;51.680;5.394;2023-04-25T05:54:56;13.82;;;3.22;;
45522;SDS011;31254;51.680;5.394;2023-04-25T05:57:23;16.65;;;3.15;;
45522;SDS011;31254;51.680;5.394;2023-04-25T05:59:51;10.27;;;2.38;;
45522;SDS011;31254;51.680;5.394;2023-04-25T06:02:19;10.38;;;2.17;;
45522;SDS011;31254;51.680;5.394;2023-04-25T06:04:51;12.80;;;2.40;;
45522;SDS011;31254;51.680;5.394;2023-04-25T06:07:19;21.10;;;2.72;;
45522;SDS011;31254;51.680;5.394;2023-04-25T06:09:50;6.60;;;2.42;;
45522;SDS011;31254;51.680;5.394;2023-04-25T06:12:17;19.13;;;2.75;;
45522;SDS011;31254;51.680;5.394;2023-04-25T06:14:44;7.57;;;2.50;;
45522;SDS011;31254;51.680;5.394;2023-04-25T06:17:11;10.63;;;2.15;;
45522;SDS011;31254;51.680;5.394;2023-04-25T06:19:37;13.13;;;2.35;;
45522;SDS011;31254;51.680;5.394;2023-04-25T06:22:04;5.45;;;2.00;;
45522;SDS011;31254;51.680;5.394;2023-04-25T06:24:33;9.10;;;2.40;;
45522;SDS011;31254;51.680;5.394;2023-04-25T06:27:00;9.88;;;2.38;;
45522;SDS011;31254;51.680;5.394;2023-04-25T06:29:27;12.15;;;1.67;;
45522;SDS011;31254;51.680;5.394;2023-04-25T06:31:54;6.88;;;1.85;;
45522;SDS011;31254;51.680;5.394;2023-04-25T06:34:21;7.90;;;1.85;;
45522;SDS011;31254;51.680;5.394;2023-04-25T06:36:48;11.52;;;1.52;;
45522;SDS011;31254;51.680;5.394;2023-04-25T06:39:14;10.88;;;1.90;;
45522;SDS011;31254;51.680;5.394;2023-04-25T06:41:41;6.35;;;2.15;;
45522;SDS011;31254;51.680;5.394;2023-04-25T06:44:08;8.48;;;1.90;;
45522;SDS011;31254;51.680;5.394;2023-04-25T06:46:37;13.10;;;2.15;;
45522;SDS011;31254;51.680;5.394;2023-04-25T06:49:04;4.43;;;1.50;;
45522;SDS011;31254;51.680;5.394;2023-04-25T06:51:31;8.32;;;1.75;;
45522;SDS011;31254;51.680;5.394;2023-04-25T06:54:00;8.05;;;1.55;;
45522;SDS011;31254;51.680;5.394;2023-04-25T06:56:28;5.47;;;1.50;;
45522;SDS011;31254;51.680;5.394;2023-04-25T06:58:56;5.70;;;1.40;;
45522;SDS011;31254;51.680;5.394;2023-04-25T07:01:25;6.53;;;1.80;;
45522;SDS011;31254;51.680;5.394;2023-04-25T07:03:52;8.30;;;1.92;;
45522;SDS011;31254;51.680;5.394;2023-04-25T07:06:21;9.68;;;2.10;;
45522;SDS011;31254;51.680;5.394;2023-04-25T07:08:52;8.13;;;1.73;;
45522;SDS011;31254;51.680;5.394;2023-04-25T07:11:18;7.43;;;2.22;;
45522;SDS011;31254;51.680;5.394;2023-04-25T07:13:47;5.55;;;1.52;;
45522;SDS011;31254;51.680;5.394;2023-04-25T07:16:16;7.97;;;1.58;;
45522;SDS011;31254;51.680;5.394;2023-04-25T07:18:43;10.50;;;1.65;;
45522;SDS011;31254;51.680;5.394;2023-04-25T07:21:10;7.90;;;1.92;;
45522;SDS011;31254;51.680;5.394;2023-04-25T07:23:37;8.02;;;1.52;;
45522;SDS011;31254;51.680;5.394;2023-04-25T07:26:06;8.07;;;1.83;;
45522;SDS011;31254;51.680;5.394;2023-04-25T07:28:34;7.40;;;1.63;;
45522;SDS011;31254;51.680;5.394;2023-04-25T07:31:01;13.18;;;2.63;;
45522;SDS011;31254;51.680;5.394;2023-04-25T07:33:27;8.27;;;1.65;;
45522;SDS011;31254;51.680;5.394;2023-04-25T07:35:55;7.65;;;1.80;;
45522;SDS011;31254;51.680;5.394;2023-04-25T07:38:22;8.05;;;1.90;;
45522;SDS011;31254;51.680;5.394;2023-04-25T07:40:48;8.68;;;1.75;;
45522;SDS011;31254;51.680;5.394;2023-04-25T07:43:16;6.93;;;1.60;;
45522;SDS011;31254;51.680;5.394;2023-04-25T07:45:43;6.10;;;1.67;;
45522;SDS011;31254;51.680;5.394;2023-04-25T07:48:10;11.32;;;1.73;;
45522;SDS011;31254;51.680;5.394;2023-04-25T07:50:37;10.20;;;2.13;;
45522;SDS011;31254;51.680;5.394;2023-04-25T07:53:04;11.40;;;1.85;;
45522;SDS011;31254;51.680;5.394;2023-04-25T07:55:30;14.45;;;2.00;;
45522;SDS011;31254;51.680;5.394;2023-04-25T07:57:57;13.32;;;2.00;;
45522;SDS011;31254;51.680;5.394;2023-04-25T08:00:26;7.35;;;1.67;;
45522;SDS011;31254;51.680;5.394;2023-04-25T08:02:55;6.03;;;1.60;;
45522;SDS011;31254;51.680;5.394;2023-04-25T08:05:24;10.20;;;1.75;;
45522;SDS011;31254;51.680;5.394;2023-04-25T08:07:51;8.57;;;2.15;;
45522;SDS011;31254;51.680;5.394;2023-04-25T08:10:18;11.75;;;1.63;;
45522;SDS011;31254;51.680;5.394;2023-04-25T08:12:45;7.70;;;2.10;;
45522;SDS011;31254;51.680;5.394;2023-04-25T08:15:12;5.78;;;1.80;;
45522;SDS011;31254;51.680;5.394;2023-04-25T08:17:40;13.23;;;1.83;;
45522;SDS011;31254;51.680;5.394;2023-04-25T08:20:10;12.88;;;2.03;;
45522;SDS011;31254;51.680;5.394;2023-04-25T08:22:37;7.18;;;1.38;;
45522;SDS011;31254;51.680;5.394;2023-04-25T08:25:04;8.02;;;2.00;;
45522;SDS011;31254;51.680;5.394;2023-04-25T08:27:31;9.95;;;1.88;;
45522;SDS011;31254;51.680;5.394;2023-04-25T08:29:57;7.25;;;2.28;;
45522;SDS011;31254;51.680;5.394;2023-04-25T08:32:24;11.45;;;1.50;;
45522;SDS011;31254;51.680;5.394;2023-04-25T08:34:54;9.85;;;1.73;;
45522;SDS011;31254;51.680;5.394;2023-04-25T08:37:21;8.52;;;1.27;;
45522;SDS011;31254;51.680;5.394;2023-04-25T08:39:51;12.00;;;1.50;;
45522;SDS011;31254;51.680;5.394;2023-04-25T08:42:20;9.70;;;1.55;;
45522;SDS011;31254;51.680;5.394;2023-04-25T08:44:48;4.80;;;1.33;;
45522;SDS011;31254;51.680;5.394;2023-04-25T08:47:16;3.22;;;1.00;;
45522;SDS011;31254;51.680;5.394;2023-04-25T08:49:48;9.68;;;1.70;;
45522;SDS011;31254;51.680;5.394;2023-04-25T08:52:21;10.20;;;1.70;;
45522;SDS011;31254;51.680;5.394;2023-04-25T08:54:50;3.90;;;1.15;;
45522;SDS011;31254;51.680;5.394;2023-04-25T08:57:20;9.65;;;1.50;;
45522;SDS011;31254;51.680;5.394;2023-04-25T08:59:51;5.95;;;1.45;;
45522;SDS011;31254;51.680;5.394;2023-04-25T09:02:18;6.45;;;1.42;;
45522;SDS011;31254;51.680;5.394;2023-04-25T09:04:47;5.38;;;1.70;;
45522;SDS011;31254;51.680;5.394;2023-04-25T09:07:14;5.20;;;1.83;;
45522;SDS011;31254;51.680;5.394;2023-04-25T09:09:47;2.50;;;0.73;;
45522;SDS011;31254;51.680;5.394;2023-04-25T09:12:13;10.52;;;1.67;;
45522;SDS011;31254;51.680;5.394;2023-04-25T09:14:40;9.05;;;1.80;;
45522;SDS011;31254;51.680;5.394;2023-04-25T09:17:10;4.47;;;1.25;;
45522;SDS011;31254;51.680;5.394;2023-04-25T09:19:37;7.30;;;1.23;;
45522;SDS011;31254;51.680;5.394;2023-04-25T09:22:07;3.58;;;1.15;;
45522;SDS011;31254;51.680;5.394;2023-04-25T09:24:38;5.22;;;1.50;;
45522;SDS011;31254;51.680;5.394;2023-04-25T09:27:10;6.63;;;1.17;;
45522;SDS011;31254;51.680;5.394;2023-04-25T09:29:44;5.32;;;1.45;;
45522;SDS011;31254;51.680;5.394;2023-04-25T09:34:52;9.07;;;1.58;;
45522;SDS011;31254;51.680;5.394;2023-04-25T09:37:21;4.22;;;0.90;;
45522;SDS011;31254;51.680;5.394;2023-04-25T09:39:49;6.35;;;1.10;;
45522;SDS011;31254;51.680;5.394;2023-04-25T09:42:24;3.97;;;0.88;;
45522;SDS011;31254;51.680;5.394;2023-04-25T09:44:53;6.32;;;1.33;;
45522;SDS011;31254;51.680;5.394;2023-04-25T09:47:22;5.25;;;1.10;;
45522;SDS011;31254;51.680;5.394;2023-04-25T09:49:53;7.82;;;1.00;;
45522;SDS011;31254;51.680;5.394;2023-04-25T09:52:24;5.35;;;0.80;;
45522;SDS011;31254;51.680;5.394;2023-04-25T09:54:51;2.88;;;0.70;;
45522;SDS011;31254;51.680;5.394;2023-04-25T09:57:24;6.93;;;1.10;;
45522;SDS011;31254;51.680;5.394;2023-04-25T09:59:53;3.67;;;0.75;;
45522;SDS011;31254;51.680;5.394;2023-04-25T10:02:21;4.95;;;1.52;;
45522;SDS011;31254;51.680;5.394;2023-04-25T10:04:50;4.72;;;1.00;;
45522;SDS011;31254;51.680;5.394;2023-04-25T10:07:22;5.82;;;1.23;;
45522;SDS011;31254;51.680;5.394;2023-04-25T10:09:58;6.05;;;1.23;;
45522;SDS011;31254;51.680;5.394;2023-04-25T10:12:30;6.88;;;1.02;;
45522;SDS011;31254;51.680;5.394;2023-04-25T10:14:59;4.38;;;1.02;;
45522;SDS011;31254;51.680;5.394;2023-04-25T10:17:26;10.70;;;1.48;;
45522;SDS011;31254;51.680;5.394;2023-04-25T10:19:56;7.25;;;1.13;;
45522;SDS011;31254;51.680;5.394;2023-04-25T10:22:26;7.22;;;1.20;;
45522;SDS011;31254;51.680;5.394;2023-04-25T10:24:57;6.57;;;1.33;;
45522;SDS011;31254;51.680;5.394;2023-04-25T10:27:26;4.82;;;1.23;;
45522;SDS011;31254;51.680;5.394;2023-04-25T10:30:04;7.65;;;1.17;;
45522;SDS011;31254;51.680;5.394;2023-04-25T10:32:43;3.45;;;0.80;;
45522;SDS011;31254;51.680;5.394;2023-04-25T10:37:56;2.72;;;0.80;;
45522;SDS011;31254;51.680;5.394;2023-04-25T10:40:31;6.32;;;1.13;;
45522;SDS011;31254;51.680;5.394;2023-04-25T10:46:12;6.95;;;0.88;;
45522;SDS011;31254;51.680;5.394;2023-04-25T10:48:47;9.02;;;1.60;;
45522;SDS011;31254;51.680;5.394;2023-04-25T10:51:23;6.80;;;1.30;;
45522;SDS011;31254;51.680;5.394;2023-04-25T11:01:48;5.53;;;0.90;;
45522;SDS011;31254;51.680;5.394;2023-04-25T11:04:21;5.22;;;0.77;;
45522;SDS011;31254;51.680;5.394;2023-04-25T11:10:04;8.32;;;0.98;;
45522;SDS011;31254;51.680;5.394;2023-04-25T11:12:32;2.65;;;0.60;;
45522;SDS011;31254;51.680;5.394;2023-04-25T11:15:05;4.40;;;1.00;;
45522;SDS011;31254;51.680;5.394;2023-04-25T11:17:35;5.47;;;1.20;;
45522;SDS011;31254;51.680;5.394;2023-04-25T11:20:02;9.32;;;1.33;;
45522;SDS011;31254;51.680;5.394;2023-04-25T11:22:33;6.22;;;1.02;;
45522;SDS011;31254;51.680;5.394;2023-04-25T11:25:07;5.18;;;1.00;;
45522;SDS011;31254;51.680;5.394;2023-04-25T11:27:37;4.95;;;1.00;;
45522;SDS011;31254;51.680;5.394;2023-04-25T11:30:21;12.10;;;0.98;;
45522;SDS011;31254;51.680;5.394;2023-04-25T11:32:48;2.13;;;0.85;;
45522;SDS011;31254;51.680;5.394;2023-04-25T11:35:16;4.38;;;0.93;;
45522;SDS011;31254;51.680;5.394;2023-04-25T11:37:43;9.35;;;1.02;;
45522;SDS011;31254;51.680;5.394;2023-04-25T11:40:10;3.60;;;0.90;;
45522;SDS011;31254;51.680;5.394;2023-04-25T11:42:44;8.27;;;1.05;;
45522;SDS011;31254;51.680;5.394;2023-04-25T11:45:12;3.78;;;1.10;;
45522;SDS011;31254;51.680;5.394;2023-04-25T11:47:40;5.38;;;1.30;;
45522;SDS011;31254;51.680;5.394;2023-04-25T11:50:07;4.78;;;1.15;;
45522;SDS011;31254;51.680;5.394;2023-04-25T11:52:38;2.90;;;0.80;;
45522;SDS011;31254;51.680;5.394;2023-04-25T11:55:15;2.25;;;0.77;;
45522;SDS011;31254;51.680;5.394;2023-04-25T11:57:42;3.28;;;0.55;;
45522;SDS011;31254;51.680;5.394;2023-04-25T12:00:14;5.32;;;0.70;;
45522;SDS011;31254;51.680;5.394;2023-04-25T12:02:46;1.08;;;0.57;;
45522;SDS011;31254;51.680;5.394;2023-04-25T12:05:14;3.20;;;0.50;;
45522;SDS011;31254;51.680;5.394;2023-04-25T12:07:57;2.20;;;0.80;;
45522;SDS011;31254;51.680;5.394;2023-04-25T12:10:24;5.13;;;0.77;;
45522;SDS011;31254;51.680;5.394;2023-04-25T12:12:52;3.88;;;0.70;;
45522;SDS011;31254;51.680;5.394;2023-04-25T12:15:23;2.50;;;0.60;;
45522;SDS011;31254;51.680;5.394;2023-04-25T12:17:52;4.45;;;0.65;;
45522;SDS011;31254;51.680;5.394;2023-04-25T12:20:31;4.97;;;0.73;;
45522;SDS011;31254;51.680;5.394;2023-04-25T12:22:58;7.75;;;1.05;;
45522;SDS011;31254;51.680;5.394;2023-04-25T12:25:37;2.67;;;0.68;;
45522;SDS011;31254;51.680;5.394;2023-04-25T12:30:59;3.90;;;0.85;;
45522;SDS011;31254;51.680;5.394;2023-04-25T12:33:31;10.50;;;1.40;;
45522;SDS011;31254;51.680;5.394;2023-04-25T12:36:00;9.80;;;1.33;;
45522;SDS011;31254;51.680;5.394;2023-04-25T12:38:39;5.53;;;0.80;;
45522;SDS011;31254;51.680;5.394;2023-04-25T12:41:10;3.47;;;0.93;;
45522;SDS011;31254;51.680;5.394;2023-04-25T12:43:38;3.55;;;0.80;;
45522;SDS011;31254;51.680;5.394;2023-04-25T12:46:07;5.97;;;1.05;;
45522;SDS011;31254;51.680;5.394;2023-04-25T12:48:34;6.40;;;0.80;;
45522;SDS011;31254;51.680;5.394;2023-04-25T12:51:01;4.70;;;0.90;;
45522;SDS011;31254;51.680;5.394;2023-04-25T12:53:27;3.35;;;0.80;;
45522;SDS011;31254;51.680;5.394;2023-04-25T12:55:54;4.47;;;0.98;;
45522;SDS011;31254;51.680;5.394;2023-04-25T12:58:21;5.85;;;0.82;;
45522;SDS011;31254;51.680;5.394;2023-04-25T13:00:47;3.50;;;0.85;;
45522;SDS011;31254;51.680;5.394;2023-04-25T13:03:17;6.70;;;1.08;;
45522;SDS011;31254;51.680;5.394;2023-04-25T13:05:44;4.47;;;1.10;;
45522;SDS011;31254;51.680;5.394;2023-04-25T13:08:10;5.38;;;1.10;;
45522;SDS011;31254;51.680;5.394;2023-04-25T13:10:40;11.25;;;1.25;;
45522;SDS011;31254;51.680;5.394;2023-04-25T13:13:09;1.35;;;0.57;;
45522;SDS011;31254;51.680;5.394;2023-04-25T13:15:35;3.20;;;0.80;;
45522;SDS011;31254;51.680;5.394;2023-04-25T13:18:03;3.00;;;0.80;;
45522;SDS011;31254;51.680;5.394;2023-04-25T13:20:31;6.72;;;0.88;;
45522;SDS011;31254;51.680;5.394;2023-04-25T13:23:01;2.63;;;0.93;;
45522;SDS011;31254;51.680;5.394;2023-04-25T13:25:28;2.22;;;1.10;;
45522;SDS011;31254;51.680;5.394;2023-04-25T13:27:55;2.13;;;1.05;;
45522;SDS011;31254;51.680;5.394;2023-04-25T13:30:22;4.45;;;0.55;;
45522;SDS011;31254;51.680;5.394;2023-04-25T13:32:48;5.30;;;1.17;;
45522;SDS011;31254;51.680;5.394;2023-04-25T13:35:16;4.07;;;1.00;;
45522;SDS011;31254;51.680;5.394;2023-04-25T13:37:43;9.30;;;1.17;;
45522;SDS011;31254;51.680;5.394;2023-04-25T13:40:12;6.72;;;1.27;;
45522;SDS011;31254;51.680;5.394;2023-04-25T13:42:41;4.00;;;1.30;;
45522;SDS011;31254;51.680;5.394;2023-04-25T13:45:11;4.18;;;0.80;;
45522;SDS011;31254;51.680;5.394;2023-04-25T13:47:38;2.83;;;0.85;;
45522;SDS011;31254;51.680;5.394;2023-04-25T13:50:07;7.00;;;0.82;;
45522;SDS011;31254;51.680;5.394;2023-04-25T13:52:34;2.15;;;0.60;;
45522;SDS011;31254;51.680;5.394;2023-04-25T13:55:01;7.43;;;1.15;;
45522;SDS011;31254;51.680;5.394;2023-04-25T13:57:35;5.13;;;1.42;;
45522;SDS011;31254;51.680;5.394;2023-04-25T14:00:07;5.72;;;1.80;;
45522;SDS011;31254;51.680;5.394;2023-04-25T14:02:35;8.43;;;1.20;;
45522;SDS011;31254;51.680;5.394;2023-04-25T14:05:05;4.28;;;0.82;;
45522;SDS011;31254;51.680;5.394;2023-04-25T14:07:33;9.90;;;1.30;;
45522;SDS011;31254;51.680;5.394;2023-04-25T14:10:03;6.72;;;1.92;;
45522;SDS011;31254;51.680;5.394;2023-04-25T14:12:31;4.53;;;1.10;;
45522;SDS011;31254;51.680;5.394;2023-04-25T14:15:01;4.32;;;1.20;;
45522;SDS011;31254;51.680;5.394;2023-04-25T14:17:30;7.25;;;1.10;;
45522;SDS011;31254;51.680;5.394;2023-04-25T14:19:59;7.57;;;1.17;;
45522;SDS011;31254;51.680;5.394;2023-04-25T14:22:26;4.18;;;1.02;;
45522;SDS011;31254;51.680;5.394;2023-04-25T14:24:55;7.07;;;1.50;;
45522;SDS011;31254;51.680;5.394;2023-04-25T14:27:24;6.88;;;1.35;;
45522;SDS011;31254;51.680;5.394;2023-04-25T14:29:54;4.43;;;0.90;;
45522;SDS011;31254;51.680;5.394;2023-04-25T14:32:21;6.57;;;1.00;;
45522;SDS011;31254;51.680;5.394;2023-04-25T14:34:48;4.20;;;0.98;;
45522;SDS011;31254;51.680;5.394;2023-04-25T14:37:14;5.55;;;1.13;;
45522;SDS011;31254;51.680;5.394;2023-04-25T14:39:41;7.47;;;1.40;;
45522;SDS011;31254;51.680;5.394;2023-04-25T14:42:11;7.82;;;1.48;;
45522;SDS011;31254;51.680;5.394;2023-04-25T14:44:38;4.38;;;1.08;;
45522;SDS011;31254;51.680;5.394;2023-04-25T14:47:04;6.00;;;0.82;;
45522;SDS011;31254;51.680;5.394;2023-04-25T14:49:34;7.18;;;1.08;;
45522;SDS011;31254;51.680;5.394;2023-04-25T14:52:00;2.90;;;1.00;;
45522;SDS011;31254;51.680;5.394;2023-04-25T14:54:28;4.13;;;0.90;;
45522;SDS011;31254;51.680;5.394;2023-04-25T14:56:54;5.30;;;1.02;;
45522;SDS011;31254;51.680;5.394;2023-04-25T14:59:26;4.65;;;1.20;;
45522;SDS011;31254;51.680;5.394;2023-04-25T15:01:54;8.07;;;1.23;;
45522;SDS011;31254;51.680;5.394;2023-04-25T15:04:25;4.32;;;1.00;;
45522;SDS011;31254;51.680;5.394;2023-04-25T15:06:52;5.10;;;1.20;;
45522;SDS011;31254;51.680;5.394;2023-04-25T15:09:21;6.75;;;1.10;;